Time;durP1;ratioP1;P1;durP2;ratioP2;P2;SDS_P1;SDS_P2;PMS_P1;PMS_P2;Temp;Humidity;BMP_temperature;BMP_pressure;BME280_temperature;BME280_humidity;BME280_pressure;Samples;Min_cycle;Max_cycle;Signal;HPM_P1;HPM_P2
2022/01/03 00:01:28;;;;;;;6.88;1.60;;;;;;;;;;5089864;28;20036;-74
2022/01/03 00:03:55;;;;;;;10.20;2.15;;;;;;;;;;5106448;28;20404;-74
2022/01/03 00:06:21;;;;;;;8.52;1.63;;;;;;;;;;5093429;28;20076;-74
2022/01/03 00:08:47;;;;;;;5.72;1.65;;;;;;;;;;5074106;28;20537;-74
2022/01/03 00:11:14;;;;;;;9.70;1.83;;;;;;;;;;5092228;28;20070;-74
2022/01/03 00:13:44;;;;;;;11.35;1.95;;;;;;;;;;5096130;28;20040;-74
2022/01/03 00:16:11;;;;;;;11.95;2.50;;;;;;;;;;5088890;28;20032;-73
2022/01/03 00:18:37;;;;;;;14.43;3.08;;;;;;;;;;5090845;28;20540;-74
2022/01/03 00:21:06;;;;;;;10.48;2.53;;;;;;;;;;5092370;28;20382;-74
2022/01/03 00:23:33;;;;;;;16.30;2.95;;;;;;;;;;5090268;28;20508;-74
2022/01/03 00:26:00;;;;;;;11.65;2.65;;;;;;;;;;5083076;28;20389;-73
2022/01/03 00:28:32;;;;;;;13.60;2.38;;;;;;;;;;5092523;28;20106;-74
2022/01/03 00:30:58;;;;;;;16.77;2.83;;;;;;;;;;5091516;28;20758;-74
2022/01/03 00:33:25;;;;;;;17.38;2.63;;;;;;;;;;5101445;28;20076;-74
2022/01/03 00:35:54;;;;;;;13.50;2.75;;;;;;;;;;5113074;28;20027;-74
2022/01/03 00:38:21;;;;;;;14.68;2.67;;;;;;;;;;5092753;28;20036;-74
2022/01/03 00:40:47;;;;;;;16.65;2.63;;;;;;;;;;5092558;28;20040;-75
2022/01/03 00:43:15;;;;;;;16.15;3.15;;;;;;;;;;5094965;28;20036;-74
2022/01/03 00:45:41;;;;;;;15.20;3.00;;;;;;;;;;5111579;28;20042;-74
2022/01/03 00:48:08;;;;;;;18.90;3.17;;;;;;;;;;5092720;28;20040;-75
2022/01/03 00:50:34;;;;;;;14.15;2.70;;;;;;;;;;5085381;28;20123;-74
2022/01/03 00:53:00;;;;;;;15.02;2.97;;;;;;;;;;5089882;28;20124;-74
2022/01/03 00:55:26;;;;;;;16.73;2.63;;;;;;;;;;5081994;28;20039;-74
2022/01/03 00:58:02;;;;;;;18.10;3.30;;;;;;;;;;5075278;28;20191;-74
2022/01/03 01:00:33;;;;;;;14.00;2.83;;;;;;;;;;5074764;28;20043;-74
2022/01/03 01:03:10;;;;;;;16.00;2.65;;;;;;;;;;5099264;28;20031;-74
2022/01/03 01:05:37;;;;;;;18.92;2.45;;;;;;;;;;5090323;28;20036;-74
2022/01/03 01:08:03;;;;;;;17.75;2.63;;;;;;;;;;5082561;28;20075;-74
2022/01/03 01:10:31;;;;;;;15.48;2.90;;;;;;;;;;5086573;28;20482;-74
2022/01/03 01:12:57;;;;;;;17.15;3.30;;;;;;;;;;5099913;28;20042;-75
2022/01/03 01:15:25;;;;;;;13.18;2.83;;;;;;;;;;5091153;28;20512;-74
2022/01/03 01:17:53;;;;;;;12.70;2.83;;;;;;;;;;5082439;28;20033;-74
2022/01/03 01:20:20;;;;;;;13.45;2.70;;;;;;;;;;5087234;28;20563;-73
2022/01/03 01:22:46;;;;;;;16.30;2.75;;;;;;;;;;5083666;28;20063;-74
2022/01/03 01:27:49;;;;;;;16.25;2.80;;;;;;;;;;5090515;28;20054;-74
2022/01/03 01:30:16;;;;;;;19.88;3.35;;;;;;;;;;5092521;28;20044;-74
2022/01/03 01:32:47;;;;;;;17.63;2.67;;;;;;;;;;5088678;28;20040;-74
2022/01/03 01:35:14;;;;;;;15.63;2.80;;;;;;;;;;5089302;28;20032;-74
2022/01/03 01:37:41;;;;;;;18.40;3.35;;;;;;;;;;5086540;28;20071;-74
2022/01/03 01:40:07;;;;;;;14.45;2.63;;;;;;;;;;5067551;28;20147;-74
2022/01/03 01:42:36;;;;;;;17.38;3.58;;;;;;;;;;5083545;28;20043;-74
2022/01/03 01:45:08;;;;;;;14.73;2.80;;;;;;;;;;5082496;28;20131;-74
2022/01/03 01:47:38;;;;;;;12.75;2.15;;;;;;;;;;5092152;28;20077;-73
2022/01/03 01:50:04;;;;;;;15.43;2.33;;;;;;;;;;5091108;28;20032;-73
2022/01/03 01:52:34;;;;;;;16.17;3.40;;;;;;;;;;5087143;28;20074;-74
2022/01/03 01:55:04;;;;;;;19.20;2.78;;;;;;;;;;5089771;28;20036;-73
2022/01/03 01:57:40;;;;;;;10.70;2.70;;;;;;;;;;5081559;28;20060;-74
2022/01/03 02:00:15;;;;;;;13.27;2.50;;;;;;;;;;5077983;28;20039;-74
2022/01/03 02:02:44;;;;;;;15.02;2.40;;;;;;;;;;5088717;28;20036;-73
2022/01/03 02:05:22;;;;;;;14.93;3.30;;;;;;;;;;5091209;28;20042;-74
2022/01/03 02:08:06;;;;;;;14.23;2.20;;;;;;;;;;5086327;28;20033;-74
2022/01/03 02:10:37;;;;;;;14.80;2.60;;;;;;;;;;5090990;28;20036;-73
2022/01/03 02:13:03;;;;;;;;;;;;;;;;;;5091409;28;20032;-73
2022/01/03 02:15:31;;;;;;;19.88;3.08;;;;;;;;;;5089975;28;19916;-73
2022/01/03 02:17:57;;;;;;;11.10;2.30;;;;;;;;;;5082977;28;20111;-74
2022/01/03 02:20:26;;;;;;;17.00;2.65;;;;;;;;;;5090322;28;20389;-73
2022/01/03 02:22:52;;;;;;;14.88;2.83;;;;;;;;;;5090308;28;20047;-74
2022/01/03 02:25:19;;;;;;;14.60;2.75;;;;;;;;;;5088780;28;20035;-73
2022/01/03 02:27:46;;;;;;;17.40;3.33;;;;;;;;;;5088921;28;20523;-73
2022/01/03 02:30:13;;;;;;;18.05;2.97;;;;;;;;;;5089611;28;20071;-73
2022/01/03 02:32:40;;;;;;;16.25;3.08;;;;;;;;;;5084450;28;20038;-73
2022/01/03 02:35:06;;;;;;;15.50;2.83;;;;;;;;;;5087234;28;20048;-74
2022/01/03 02:37:32;;;;;;;13.77;2.95;;;;;;;;;;5091397;28;20077;-73
2022/01/03 02:39:58;;;;;;;14.52;2.63;;;;;;;;;;5090210;28;20038;-73
2022/01/03 02:42:25;;;;;;;17.85;3.15;;;;;;;;;;5079399;28;20050;-74
2022/01/03 02:45:10;;;;;;;14.18;2.78;;;;;;;;;;5086981;28;20052;-73
2022/01/03 02:47:36;;;;;;;28.90;3.95;;;;;;;;;;5083734;28;20501;-74
2022/01/03 02:50:04;;;;;;;13.60;2.45;;;;;;;;;;5090228;28;20490;-74
2022/01/03 02:52:29;;;;;;;18.92;2.58;;;;;;;;;;5086715;28;20135;-74
2022/01/03 02:54:56;;;;;;;12.32;2.58;;;;;;;;;;5088280;28;20119;-73
2022/01/03 02:57:23;;;;;;;15.13;2.60;;;;;;;;;;5078872;28;20045;-73
2022/01/03 02:59:53;;;;;;;13.75;2.80;;;;;;;;;;5070883;28;20075;-73
2022/01/03 03:02:21;;;;;;;15.93;2.95;;;;;;;;;;5089329;28;20119;-73
2022/01/03 03:04:54;;;;;;;16.92;3.40;;;;;;;;;;5088969;28;20123;-73
2022/01/03 03:07:21;;;;;;;19.92;3.25;;;;;;;;;;5077644;28;20055;-73
2022/01/03 03:09:47;;;;;;;19.95;3.42;;;;;;;;;;5087091;28;20490;-74
2022/01/03 03:12:13;;;;;;;21.55;2.72;;;;;;;;;;5087972;28;20472;-74
2022/01/03 03:14:39;;;;;;;15.20;2.83;;;;;;;;;;5086178;28;20043;-73
2022/01/03 03:17:06;;;;;;;20.48;3.03;;;;;;;;;;5084390;28;20036;-73
2022/01/03 03:19:32;;;;;;;18.42;2.67;;;;;;;;;;5090606;28;20503;-73
2022/01/03 03:21:58;;;;;;;17.63;3.22;;;;;;;;;;5087409;28;20135;-73
2022/01/03 03:24:24;;;;;;;24.80;3.40;;;;;;;;;;5089099;28;20576;-73
2022/01/03 03:26:49;;;;;;;26.45;3.70;;;;;;;;;;5082295;28;20048;-73
2022/01/03 03:29:15;;;;;;;18.38;3.25;;;;;;;;;;5090313;28;20040;-74
2022/01/03 03:31:42;;;;;;;15.98;2.50;;;;;;;;;;5090098;28;20036;-73
2022/01/03 03:34:08;;;;;;;25.52;3.00;;;;;;;;;;5087819;28;20501;-74
2022/01/03 03:36:34;;;;;;;20.85;3.03;;;;;;;;;;5092342;28;20043;-73
2022/01/03 03:39:00;;;;;;;18.20;3.05;;;;;;;;;;5093239;28;20033;-73
2022/01/03 03:41:26;;;;;;;21.20;3.22;;;;;;;;;;5086338;28;20036;-74
2022/01/03 03:43:52;;;;;;;13.93;3.17;;;;;;;;;;5094140;28;20137;-73
2022/01/03 03:46:18;;;;;;;17.48;3.10;;;;;;;;;;5090811;28;20480;-73
2022/01/03 03:48:44;;;;;;;20.23;2.80;;;;;;;;;;5094289;28;20040;-74
2022/01/03 03:51:10;;;;;;;22.77;3.80;;;;;;;;;;5088726;28;20032;-73
2022/01/03 03:53:36;;;;;;;18.50;3.28;;;;;;;;;;5094548;28;20044;-73
2022/01/03 03:56:02;;;;;;;22.08;3.75;;;;;;;;;;5092308;28;20036;-73
2022/01/03 03:58:28;;;;;;;23.77;3.17;;;;;;;;;;5091784;28;20049;-73
2022/01/03 04:00:54;;;;;;;15.95;3.28;;;;;;;;;;5091812;28;20417;-73
2022/01/03 04:03:20;;;;;;;24.27;4.18;;;;;;;;;;5093111;28;20036;-73
2022/01/03 04:05:46;;;;;;;19.50;3.95;;;;;;;;;;5090201;28;20149;-73
2022/01/03 04:08:12;;;;;;;17.20;3.47;;;;;;;;;;5089613;28;20036;-73
2022/01/03 04:10:38;;;;;;;15.65;2.50;;;;;;;;;;5083226;28;20074;-73
2022/01/03 04:13:04;;;;;;;21.83;2.95;;;;;;;;;;5091011;28;20043;-73
2022/01/03 04:15:30;;;;;;;19.90;3.15;;;;;;;;;;5091764;28;20028;-73
2022/01/03 04:17:56;;;;;;;17.83;4.13;;;;;;;;;;5091123;28;20115;-73
2022/01/03 04:20:24;;;;;;;21.50;4.00;;;;;;;;;;5091585;28;20210;-73
2022/01/03 04:22:50;;;;;;;20.45;3.90;;;;;;;;;;5090623;28;20042;-74
2022/01/03 04:25:16;;;;;;;17.50;2.88;;;;;;;;;;5091969;28;20036;-74
2022/01/03 04:27:42;;;;;;;18.58;2.75;;;;;;;;;;5093094;28;20043;-73
2022/01/03 04:30:08;;;;;;;21.10;3.38;;;;;;;;;;5093113;28;20354;-73
2022/01/03 04:32:34;;;;;;;14.18;3.42;;;;;;;;;;5087499;28;20144;-73
2022/01/03 04:35:00;;;;;;;23.60;3.28;;;;;;;;;;5089599;28;20139;-73
2022/01/03 04:37:26;;;;;;;21.95;3.85;;;;;;;;;;5094129;28;20031;-73
2022/01/03 04:39:52;;;;;;;21.80;4.03;;;;;;;;;;5089148;28;20481;-73
2022/01/03 04:42:18;;;;;;;14.02;2.85;;;;;;;;;;5092855;28;20107;-73
2022/01/03 04:44:44;;;;;;;19.88;3.28;;;;;;;;;;5100428;28;20042;-73
2022/01/03 04:47:10;;;;;;;20.38;3.80;;;;;;;;;;5075648;28;20093;-73
2022/01/03 04:49:36;;;;;;;27.25;3.63;;;;;;;;;;5075880;28;20045;-73
2022/01/03 04:52:02;;;;;;;19.90;3.58;;;;;;;;;;5090649;28;20032;-73
2022/01/03 04:54:28;;;;;;;20.17;3.83;;;;;;;;;;5064669;22;20088;-64
2022/01/03 04:56:59;;;;;;;21.42;3.20;;;;;;;;;;4971536;28;20035;-63
2022/01/03 04:59:24;;;;;;;18.52;3.53;;;;;;;;;;4968351;28;20034;-64
2022/01/03 05:01:50;;;;;;;23.73;4.15;;;;;;;;;;4984273;28;20405;-64
2022/01/03 05:04:16;;;;;;;23.60;3.58;;;;;;;;;;4998994;28;20147;-63
2022/01/03 05:06:42;;;;;;;21.40;3.65;;;;;;;;;;4988983;28;20042;-63
2022/01/03 05:09:08;;;;;;;23.63;3.53;;;;;;;;;;4986457;28;20507;-63
2022/01/03 05:11:34;;;;;;;23.15;4.03;;;;;;;;;;4989423;28;20569;-63
2022/01/03 05:14:00;;;;;;;26.73;4.10;;;;;;;;;;4990099;28;20470;-64
2022/01/03 05:16:26;;;;;;;24.33;4.15;;;;;;;;;;4989755;28;20034;-63
2022/01/03 05:18:52;;;;;;;27.67;4.38;;;;;;;;;;4986402;28;20042;-63
2022/01/03 05:21:19;;;;;;;22.85;3.58;;;;;;;;;;4983248;28;20109;-63
2022/01/03 05:23:45;;;;;;;24.38;3.97;;;;;;;;;;4994440;28;20415;-63
2022/01/03 05:26:13;;;;;;;21.23;3.45;;;;;;;;;;4967026;28;20046;-63
2022/01/03 05:28:39;;;;;;;22.60;4.20;;;;;;;;;;4997864;28;20050;-64
2022/01/03 05:31:06;;;;;;;25.88;3.58;;;;;;;;;;4988819;28;20404;-63
2022/01/03 05:33:32;;;;;;;20.10;3.83;;;;;;;;;;4987230;28;20046;-64
2022/01/03 05:35:57;;;;;;;23.67;4.88;;;;;;;;;;4983589;28;20030;-64
2022/01/03 05:38:23;;;;;;;21.33;3.83;;;;;;;;;;4988710;28;20057;-63
2022/01/03 05:40:49;;;;;;;20.48;3.90;;;;;;;;;;4980075;28;20051;-63
2022/01/03 05:43:15;;;;;;;22.83;4.05;;;;;;;;;;4984752;28;20034;-63
2022/01/03 05:45:41;;;;;;;24.42;4.47;;;;;;;;;;4993181;28;20521;-65
2022/01/03 05:48:07;;;;;;;24.58;3.55;;;;;;;;;;4987142;28;20045;-65
2022/01/03 05:50:34;;;;;;;26.90;4.32;;;;;;;;;;4985502;28;20403;-64
2022/01/03 05:52:59;;;;;;;18.55;3.33;;;;;;;;;;4983303;28;20038;-65
2022/01/03 05:55:26;;;;;;;25.30;4.18;;;;;;;;;;4986018;28;20043;-64
2022/01/03 05:57:52;;;;;;;26.02;3.65;;;;;;;;;;4997262;28;20515;-65
2022/01/03 06:00:20;;;;;;;26.80;4.13;;;;;;;;;;5005545;28;20039;-64
2022/01/03 06:02:46;;;;;;;25.40;3.60;;;;;;;;;;4985450;28;20038;-64
2022/01/03 06:05:20;;;;;;;26.77;4.43;;;;;;;;;;4989845;28;20412;-64
2022/01/03 06:07:46;;;;;;;22.17;3.63;;;;;;;;;;4990056;28;20046;-64
2022/01/03 06:10:15;;;;;;;30.15;4.25;;;;;;;;;;4989487;28;20042;-64
2022/01/03 06:12:42;;;;;;;27.33;4.10;;;;;;;;;;4986823;28;20551;-64
2022/01/03 06:15:08;;;;;;;21.75;3.42;;;;;;;;;;4988348;28;20049;-64
2022/01/03 06:17:34;;;;;;;27.70;4.25;;;;;;;;;;4982015;28;20037;-65
2022/01/03 06:20:00;;;;;;;21.15;4.38;;;;;;;;;;4988744;28;20399;-64
2022/01/03 06:22:26;;;;;;;35.47;5.32;;;;;;;;;;4985581;28;20108;-64
2022/01/03 06:24:52;;;;;;;24.92;4.38;;;;;;;;;;4987572;28;20042;-64
2022/01/03 06:27:18;;;;;;;20.42;3.63;;;;;;;;;;4983120;28;20046;-65
2022/01/03 06:29:44;;;;;;;28.42;4.22;;;;;;;;;;4988964;28;20125;-64
2022/01/03 06:32:10;;;;;;;27.70;4.25;;;;;;;;;;4985966;28;20034;-64
2022/01/03 06:34:36;;;;;;;26.55;4.20;;;;;;;;;;4988585;28;20050;-64
2022/01/03 06:37:02;;;;;;;29.55;4.72;;;;;;;;;;4985953;28;20034;-64
2022/01/03 06:39:28;;;;;;;28.25;4.70;;;;;;;;;;4988567;28;20633;-64
2022/01/03 06:41:54;;;;;;;31.27;4.40;;;;;;;;;;4987117;28;20061;-64
2022/01/03 06:44:20;;;;;;;30.70;4.75;;;;;;;;;;4987642;28;20066;-64
2022/01/03 06:46:47;;;;;;;28.38;4.32;;;;;;;;;;4971690;28;20057;-64
2022/01/03 06:49:13;;;;;;;25.52;4.03;;;;;;;;;;4988258;28;20042;-65
2022/01/03 06:51:39;;;;;;;30.25;4.57;;;;;;;;;;4989146;28;20035;-66
2022/01/03 06:54:06;;;;;;;29.73;5.63;;;;;;;;;;4986442;28;20066;-65
2022/01/03 06:56:32;;;;;;;39.80;4.55;;;;;;;;;;4986836;28;20034;-65
2022/01/03 06:58:58;;;;;;;28.58;4.65;;;;;;;;;;4987779;28;20092;-65
2022/01/03 07:01:24;;;;;;;27.65;4.32;;;;;;;;;;4987192;28;20458;-65
2022/01/03 07:03:50;;;;;;;22.13;4.22;;;;;;;;;;4986306;28;20042;-64
2022/01/03 07:06:16;;;;;;;32.35;5.32;;;;;;;;;;4976336;28;20078;-65
2022/01/03 07:08:42;;;;;;;23.63;4.10;;;;;;;;;;4987556;28;20042;-65
2022/01/03 07:11:08;;;;;;;32.05;4.75;;;;;;;;;;4976257;28;20080;-65
2022/01/03 07:13:43;;;;;;;30.65;4.70;;;;;;;;;;4990034;28;20049;-65
2022/01/03 07:18:56;;;;;;;27.85;5.15;;;;;;;;;;4990078;28;20049;-65
2022/01/03 07:21:27;;;;;;;29.38;4.95;;;;;;;;;;4986303;28;20049;-65
2022/01/03 07:23:53;;;;;;;23.20;3.78;;;;;;;;;;4987473;28;20057;-65
2022/01/03 07:26:19;;;;;;;32.75;4.50;;;;;;;;;;4971791;28;20042;-65
2022/01/03 07:28:45;;;;;;;26.60;4.47;;;;;;;;;;4988137;28;20039;-65
2022/01/03 07:31:11;;;;;;;34.58;5.13;;;;;;;;;;4989380;28;20047;-65
2022/01/03 07:33:37;;;;;;;29.75;5.85;;;;;;;;;;4992791;28;20047;-65
2022/01/03 07:36:03;;;;;;;24.15;3.67;;;;;;;;;;4989228;28;20108;-65
2022/01/03 07:38:29;;;;;;;31.98;5.53;;;;;;;;;;4989050;28;20038;-65
2022/01/03 07:40:55;;;;;;;35.00;5.32;;;;;;;;;;4975294;28;20119;-65
2022/01/03 07:43:21;;;;;;;30.52;5.20;;;;;;;;;;4991194;28;20099;-65
2022/01/03 07:45:47;;;;;;;28.60;4.95;;;;;;;;;;4972904;28;20426;-65
2022/01/03 07:48:13;;;;;;;35.17;5.40;;;;;;;;;;4987138;28;20117;-65
2022/01/03 07:50:39;;;;;;;28.83;4.95;;;;;;;;;;4989150;28;20423;-65
2022/01/03 07:53:05;;;;;;;26.75;4.88;;;;;;;;;;4989750;28;20047;-65
2022/01/03 07:55:31;;;;;;;37.03;4.90;;;;;;;;;;4996639;28;20034;-65
2022/01/03 07:57:57;;;;;;;32.67;5.53;;;;;;;;;;4995705;28;20083;-64
2022/01/03 08:00:23;;;;;;;32.75;5.28;;;;;;;;;;4991987;28;20121;-65
2022/01/03 08:02:49;;;;;;;35.25;4.68;;;;;;;;;;4988023;28;20121;-64
2022/01/03 08:05:16;;;;;;;35.17;4.72;;;;;;;;;;4990730;28;20326;-65
2022/01/03 08:07:43;;;;;;;30.30;4.60;;;;;;;;;;5020450;28;20038;-65
2022/01/03 08:10:10;;;;;;;25.92;4.55;;;;;;;;;;4990630;28;20042;-65
2022/01/03 08:12:37;;;;;;;28.45;4.65;;;;;;;;;;4987778;28;20046;-65
2022/01/03 08:15:04;;;;;;;32.20;4.85;;;;;;;;;;4990979;28;20509;-65
2022/01/03 08:17:30;;;;;;;22.65;4.82;;;;;;;;;;5001372;28;20487;-65
2022/01/03 08:19:56;;;;;;;18.33;3.63;;;;;;;;;;4992729;28;20045;-64
2022/01/03 08:22:22;;;;;;;19.05;3.53;;;;;;;;;;4986004;28;20411;-64
2022/01/03 08:24:47;;;;;;;27.67;4.28;;;;;;;;;;5003698;28;20044;-64
2022/01/03 08:27:14;;;;;;;26.50;4.60;;;;;;;;;;4984810;28;20043;-64
2022/01/03 08:29:40;;;;;;;25.67;3.63;;;;;;;;;;4988922;28;20473;-65
2022/01/03 08:32:06;;;;;;;29.67;4.15;;;;;;;;;;4988143;28;20039;-65
2022/01/03 08:34:32;;;;;;;32.90;4.85;;;;;;;;;;4990366;28;20118;-65
2022/01/03 08:37:00;;;;;;;25.63;4.25;;;;;;;;;;4991372;28;20118;-65
2022/01/03 08:39:26;;;;;;;25.85;4.38;;;;;;;;;;4991091;28;20391;-64
2022/01/03 08:41:52;;;;;;;23.73;4.05;;;;;;;;;;4978121;28;20047;-64
2022/01/03 08:44:18;;;;;;;31.77;4.45;;;;;;;;;;5019345;28;20070;-65
2022/01/03 08:46:46;;;;;;;21.17;3.60;;;;;;;;;;4996046;28;20447;-65
2022/01/03 08:49:12;;;;;;;26.83;4.38;;;;;;;;;;4998741;28;20081;-65
2022/01/03 08:51:38;;;;;;;19.63;3.83;;;;;;;;;;4988387;28;20042;-64
2022/01/03 08:54:04;;;;;;;20.73;3.33;;;;;;;;;;5007997;28;20059;-65
2022/01/03 08:56:30;;;;;;;24.67;4.10;;;;;;;;;;4994619;28;20112;-64
2022/01/03 08:58:56;;;;;;;25.98;4.20;;;;;;;;;;4989671;28;20434;-64
2022/01/03 09:01:22;;;;;;;27.42;5.07;;;;;;;;;;4985979;28;20038;-64
2022/01/03 09:03:51;;;;;;;21.65;3.50;;;;;;;;;;4984547;28;20065;-64
2022/01/03 09:06:18;;;;;;;28.23;4.28;;;;;;;;;;4990972;28;20526;-65
2022/01/03 09:08:44;;;;;;;24.55;3.95;;;;;;;;;;4990734;28;20042;-64
2022/01/03 09:11:10;;;;;;;20.77;3.58;;;;;;;;;;4988473;28;20035;-64
2022/01/03 09:13:37;;;;;;;27.27;4.10;;;;;;;;;;4989509;28;20046;-64
2022/01/03 09:16:06;;;;;;;24.60;4.55;;;;;;;;;;4975147;28;20419;-64
2022/01/03 09:18:33;;;;;;;20.67;4.35;;;;;;;;;;4985149;28;20050;-64
2022/01/03 09:20:59;;;;;;;20.55;3.70;;;;;;;;;;4988512;28;20053;-64
2022/01/03 09:23:30;;;;;;;28.85;4.10;;;;;;;;;;4973973;28;20046;-64
2022/01/03 09:28:52;;;;;;;23.38;4.00;;;;;;;;;;4990421;28;20053;-64
2022/01/03 09:31:20;;;;;;;28.85;4.47;;;;;;;;;;4987460;28;20034;-64
2022/01/03 09:33:46;;;;;;;22.80;3.67;;;;;;;;;;4984227;28;20074;-64
2022/01/03 09:36:12;;;;;;;19.90;3.25;;;;;;;;;;4963867;28;20693;-64
2022/01/03 09:38:38;;;;;;;25.85;3.83;;;;;;;;;;4971241;28;20042;-64
2022/01/03 09:41:05;;;;;;;21.80;4.07;;;;;;;;;;4987745;28;20087;-64
2022/01/03 09:43:51;;;;;;;22.92;3.88;;;;;;;;;;4986773;28;20046;-64
2022/01/03 09:46:22;;;;;;;22.35;4.00;;;;;;;;;;4985278;28;20077;-64
2022/01/03 09:48:52;;;;;;;25.67;3.72;;;;;;;;;;4990720;28;20125;-64
2022/01/03 09:51:19;;;;;;;28.48;3.97;;;;;;;;;;4988736;28;20038;-64
2022/01/03 09:53:45;;;;;;;21.98;4.47;;;;;;;;;;4981174;28;20169;-64
2022/01/03 09:56:11;;;;;;;19.45;3.63;;;;;;;;;;4990287;28;20087;-64
2022/01/03 09:58:37;;;;;;;26.30;4.13;;;;;;;;;;4990069;28;20121;-64
2022/01/03 10:01:03;;;;;;;21.13;3.38;;;;;;;;;;4974326;28;20038;-64
2022/01/03 10:03:30;;;;;;;21.88;4.35;;;;;;;;;;4988274;28;20049;-64
2022/01/03 10:05:56;;;;;;;21.48;3.42;;;;;;;;;;4989884;28;20072;-64
2022/01/03 10:08:22;;;;;;;24.55;4.32;;;;;;;;;;4972944;28;20095;-64
2022/01/03 10:10:50;;;;;;;25.27;4.05;;;;;;;;;;4989457;28;20043;-64
2022/01/03 10:13:16;;;;;;;25.95;3.95;;;;;;;;;;4987977;28;20473;-64
2022/01/03 10:15:42;;;;;;;23.52;4.07;;;;;;;;;;4986423;28;20038;-64
2022/01/03 10:18:16;;;;;;;23.48;3.47;;;;;;;;;;4990241;28;20088;-64
2022/01/03 10:20:42;;;;;;;20.85;3.55;;;;;;;;;;4989302;28;20042;-64
2022/01/03 10:23:09;;;;;;;20.73;3.40;;;;;;;;;;4987867;28;20403;-64
2022/01/03 10:25:35;;;;;;;19.63;3.47;;;;;;;;;;4989427;28;20038;-64
2022/01/03 10:28:03;;;;;;;25.42;4.20;;;;;;;;;;4990164;28;20117;-64
2022/01/03 10:30:40;;;;;;;17.63;3.75;;;;;;;;;;5043676;28;20097;-65
2022/01/03 10:33:11;;;;;;;25.30;4.15;;;;;;;;;;4985109;28;20492;-64
2022/01/03 10:35:39;;;;;;;22.13;4.07;;;;;;;;;;4973144;28;20078;-64
2022/01/03 10:38:05;;;;;;;21.05;3.40;;;;;;;;;;4953469;28;20050;-64
2022/01/03 10:40:31;;;;;;;16.13;3.85;;;;;;;;;;4966386;28;20042;-64
2022/01/03 10:42:58;;;;;;;19.73;3.50;;;;;;;;;;4987186;28;20514;-64
2022/01/03 10:45:31;;;;;;;22.30;3.95;;;;;;;;;;4988639;28;20042;-64
2022/01/03 10:47:57;;;;;;;28.23;4.70;;;;;;;;;;4989539;28;20484;-64
2022/01/03 10:50:24;;;;;;;19.23;3.85;;;;;;;;;;4989975;28;20103;-65
2022/01/03 10:52:50;;;;;;;18.60;3.65;;;;;;;;;;4984004;28;20049;-65
2022/01/03 10:55:20;;;;;;;21.67;3.40;;;;;;;;;;5041860;22;20056;-71
2022/01/03 10:57:46;;;;;;;23.33;3.55;;;;;;;;;;5071533;28;20131;-71
2022/01/03 11:00:20;;;;;;;28.65;3.83;;;;;;;;;;5071339;28;20040;-71
2022/01/03 11:03:10;;;;;;;24.08;3.85;;;;;;;;;;5069044;28;20556;-71
2022/01/03 11:05:39;;;;;;;23.23;3.65;;;;;;;;;;5054907;28;20055;-71
2022/01/03 11:10:44;;;;;;;23.70;3.88;;;;;;;;;;5051511;28;20045;-71
2022/01/03 11:13:17;;;;;;;23.50;3.13;;;;;;;;;;5067410;28;20504;-72
2022/01/03 11:15:57;;;;;;;28.38;4.30;;;;;;;;;;5070076;28;20040;-72
2022/01/03 11:18:24;;;;;;;22.42;4.57;;;;;;;;;;5071592;28;20048;-71
2022/01/03 11:21:04;;;;;;;27.90;4.75;;;;;;;;;;5070272;28;20182;-71
2022/01/03 11:23:29;;;;;;;19.83;3.42;;;;;;;;;;5066564;28;20537;-71
2022/01/03 11:25:55;;;;;;;15.90;2.95;;;;;;;;;;5070829;28;20040;-72
2022/01/03 11:28:23;;;;;;;23.77;3.72;;;;;;;;;;5070849;28;20138;-71
2022/01/03 11:30:49;;;;;;;28.42;4.63;;;;;;;;;;5070383;28;20037;-71
2022/01/03 11:33:15;;;;;;;21.92;4.38;;;;;;;;;;5069819;28;20064;-71
2022/01/03 11:35:48;;;;;;;22.95;3.97;;;;;;;;;;5070710;28;20083;-71
2022/01/03 11:38:15;;;;;;;18.15;3.58;;;;;;;;;;5055933;28;20121;-72
2022/01/03 11:40:42;;;;;;;25.88;3.55;;;;;;;;;;5051487;28;20037;-72
2022/01/03 11:43:08;;;;;;;28.30;4.22;;;;;;;;;;5069873;28;20037;-72
2022/01/03 11:45:34;;;;;;;30.20;3.97;;;;;;;;;;5070809;28;20044;-71
2022/01/03 11:48:00;;;;;;;24.52;4.30;;;;;;;;;;5071263;28;20123;-72
2022/01/03 11:50:26;;;;;;;18.25;3.28;;;;;;;;;;5070810;28;20055;-72
2022/01/03 11:52:52;;;;;;;25.10;4.00;;;;;;;;;;5069451;28;20068;-72
2022/01/03 11:55:18;;;;;;;26.98;4.50;;;;;;;;;;5070706;28;20066;-71
2022/01/03 11:58:10;;;;;;;21.13;3.83;;;;;;;;;;5060455;28;20029;-72
2022/01/03 12:06:03;;;;;;;21.65;3.80;;;;;;;;;;5073340;28;20036;-74
2022/01/03 12:08:30;;;;;;;21.98;3.42;;;;;;;;;;5074711;28;20040;-73
2022/01/03 12:11:00;;;;;;;26.08;4.32;;;;;;;;;;5073295;28;20045;-76
2022/01/03 12:13:59;;;;;;;22.25;4.13;;;;;;;;;;5067050;28;20490;-76
2022/01/03 12:16:40;;;;;;;20.77;4.15;;;;;;;;;;5022028;28;20041;-75
2022/01/03 12:19:08;;;;;;;21.05;3.80;;;;;;;;;;5074493;28;20032;-75
2022/01/03 12:21:50;;;;;;;21.70;3.58;;;;;;;;;;5071777;28;20090;-75
2022/01/03 12:24:28;;;;;;;20.27;3.55;;;;;;;;;;5068563;28;20044;-75
2022/01/03 12:27:12;;;;;;;20.77;3.92;;;;;;;;;;5070200;28;20106;-75
2022/01/03 12:29:57;;;;;;;20.10;4.35;;;;;;;;;;5074329;28;20045;-74
2022/01/03 12:32:34;;;;;;;14.80;3.08;;;;;;;;;;5072775;28;20423;-74
2022/01/03 12:35:13;;;;;;;19.83;3.20;;;;;;;;;;5056732;28;20087;-75
2022/01/03 12:37:49;;;;;;;21.17;3.30;;;;;;;;;;5054161;28;20041;-75
2022/01/03 12:40:17;;;;;;;19.95;3.50;;;;;;;;;;5062559;28;20079;-75
2022/01/03 12:42:50;;;;;;;20.40;3.60;;;;;;;;;;5071663;28;20063;-75
2022/01/03 12:45:18;;;;;;;23.67;3.97;;;;;;;;;;5059650;28;20036;-75
2022/01/03 12:47:44;;;;;;;24.63;4.00;;;;;;;;;;5072775;28;20097;-75
2022/01/03 12:50:28;;;;;;;18.90;4.13;;;;;;;;;;5073920;28;20049;-75
2022/01/03 12:52:57;;;;;;;25.42;4.00;;;;;;;;;;5072251;28;20055;-75
2022/01/03 12:55:38;;;;;;;22.38;3.53;;;;;;;;;;5070209;28;20044;-75
2022/01/03 12:58:04;;;;;;;;;;;;;;;;;;5074094;28;20085;-74
2022/01/03 13:00:50;;;;;;;24.77;4.78;;;;;;;;;;5073397;28;20455;-74
2022/01/03 13:03:28;;;;;;;20.98;4.28;;;;;;;;;;5069645;28;20032;-74
2022/01/03 13:06:10;;;;;;;21.48;3.70;;;;;;;;;;5073053;28;20037;-74
2022/01/03 13:08:37;;;;;;;21.50;3.83;;;;;;;;;;5069946;28;20537;-74
2022/01/03 13:11:06;;;;;;;22.08;3.97;;;;;;;;;;5060298;28;20379;-74
2022/01/03 13:13:32;;;;;;;20.17;4.07;;;;;;;;;;5071983;28;20111;-75
2022/01/03 13:15:58;;;;;;;19.15;3.85;;;;;;;;;;5064766;28;20089;-74
2022/01/03 13:18:24;;;;;;;19.17;3.70;;;;;;;;;;5072561;28;20612;-74
2022/01/03 13:20:57;;;;;;;30.17;4.65;;;;;;;;;;5072045;28;20040;-74
2022/01/03 13:23:26;;;;;;;26.60;4.57;;;;;;;;;;5069673;28;20037;-74
2022/01/03 13:26:04;;;;;;;21.67;3.60;;;;;;;;;;5060593;28;20726;-75
2022/01/03 13:28:31;;;;;;;20.17;4.85;;;;;;;;;;5072818;28;20025;-75
2022/01/03 13:31:03;;;;;;;22.85;3.88;;;;;;;;;;5072313;28;20068;-75
2022/01/03 13:33:30;;;;;;;22.88;4.32;;;;;;;;;;5072344;28;20039;-75
2022/01/03 13:36:03;;;;;;;18.90;4.15;;;;;;;;;;5067513;28;20047;-75
2022/01/03 13:38:29;;;;;;;22.10;4.38;;;;;;;;;;5072877;28;20028;-74
2022/01/03 13:41:09;;;;;;;23.77;4.25;;;;;;;;;;5064596;28;20044;-75
2022/01/03 13:43:40;;;;;;;27.38;4.47;;;;;;;;;;5072055;28;20497;-74
2022/01/03 13:51:20;;;;;;;21.20;3.47;;;;;;;;;;5049265;28;20051;-74
2022/01/03 13:53:50;;;;;;;20.73;4.07;;;;;;;;;;5070543;28;20082;-74
2022/01/03 13:56:16;;;;;;;18.77;4.47;;;;;;;;;;5070055;28;20037;-74
2022/01/03 13:58:44;;;;;;;21.52;3.50;;;;;;;;;;5072680;28;20037;-73
2022/01/03 14:01:10;;;;;;;27.17;4.28;;;;;;;;;;5070945;28;20322;-74
2022/01/03 14:03:36;;;;;;;20.73;3.80;;;;;;;;;;5071436;28;20045;-74
2022/01/03 14:06:15;;;;;;;20.55;4.03;;;;;;;;;;5072361;28;20029;-74
2022/01/03 14:08:41;;;;;;;22.40;4.55;;;;;;;;;;5072186;28;20036;-74
2022/01/03 14:11:12;;;;;;;21.30;4.55;;;;;;;;;;5070667;28;20413;-74
2022/01/03 14:13:38;;;;;;;18.98;4.50;;;;;;;;;;5070168;28;20111;-75
2022/01/03 14:16:08;;;;;;;24.88;4.05;;;;;;;;;;5065187;28;20111;-74
2022/01/03 14:18:46;;;;;;;22.15;4.13;;;;;;;;;;5059182;28;20044;-72
2022/01/03 14:21:17;;;;;;;21.30;3.97;;;;;;;;;;5063563;28;20036;-71
2022/01/03 14:23:44;;;;;;;23.85;3.78;;;;;;;;;;5066270;28;20602;-72
2022/01/03 14:26:20;;;;;;;20.50;4.00;;;;;;;;;;5066344;28;20028;-72
2022/01/03 14:28:47;;;;;;;23.27;3.80;;;;;;;;;;5061968;28;20048;-73
2022/01/03 14:31:13;;;;;;;27.48;4.70;;;;;;;;;;5065673;28;20058;-71
2022/01/03 14:33:39;;;;;;;27.13;3.88;;;;;;;;;;5069707;28;20037;-72
2022/01/03 14:36:11;;;;;;;20.67;4.20;;;;;;;;;;5067105;28;20033;-72
2022/01/03 14:38:40;;;;;;;26.45;4.43;;;;;;;;;;5068146;28;20036;-72
2022/01/03 14:41:13;;;;;;;16.88;4.10;;;;;;;;;;5064635;28;20044;-72
2022/01/03 14:43:39;;;;;;;18.73;3.47;;;;;;;;;;5076544;28;20128;-72
2022/01/03 14:46:06;;;;;;;28.00;4.60;;;;;;;;;;5062972;28;20127;-72
2022/01/03 14:48:32;;;;;;;24.23;4.97;;;;;;;;;;5062020;28;20042;-71
2022/01/03 14:51:08;;;;;;;18.65;3.60;;;;;;;;;;5062461;28;20032;-72
2022/01/03 14:53:34;;;;;;;21.10;4.57;;;;;;;;;;5062302;28;20035;-72
2022/01/03 14:56:00;;;;;;;25.77;4.00;;;;;;;;;;5071007;28;20115;-72
2022/01/03 14:58:26;;;;;;;25.13;4.50;;;;;;;;;;5071710;28;20037;-71